Alpine, Pennsylvania
Current Conditions -  °F | °C
As of 12:56 PM on Tuesday 21 Oct 2014 (Local Time) from KCXY Reporting Station
Broken Clouds Broken Clouds  
Wind Chill: 62°   Ceiling: 4200
Heat Index: 62°   Visibility: 10mi
Dew Point: 51°   Wind: 0mph
Humidity: 67%   Direction: NA
Pressure: 29.85"   Gusts: NA
Location:  40.1328°N, 76.8833°W
Report Text: KCXY 211656Z 00000KT 10SM FEW021 BKN042 17/11 A2985 RMK AO2 SLP110 T01670106
Loading
Personal Weather Stations






























Interactive Weather Map New forecast layout! Learn more

10-Day Weather Forecast

Advertisements
Track Severe Weather on mobile